Главная страница
METAR-TAF:

METAR-TAF

Аэропорты :

Питтсбург / West Mifflin, Пенсильвания, США

широта: 40-21-17N, долгота: 079-55-18W, высота над уровнем моря: 382 м

Текущие метеонаблюдения

Эта сводка был подготовлена 16 минут назад, в 02:53 UTC
Ветер 3 Узел от западно-северо-западный
Температура -14°C
Влажность 78%
Давление 1034 hPa
Видимость: 16.1 км
ясное небо

METAR: KAGC 220253Z 29003KT 10SM CLR M14/M17 A3053 RMK AO2 SLP375 T11391172 50007

Время: 22:09 (03:09 UTC)

Прогноз

Эта сводка был подготовлена 3 часа и 44 минут назад, в 23:25 UTC
Прогноз действительный с 22-го 00 UTC до 22-го 24 UTC
Ветер 4 Узел переменных направлений
Видимость: 10 км
Рассеянная облачность на высоте 5000 фута
С 22-го 1400 UTC
Ветер 7 Узел от восточно-юго-восточный
Видимость: 10 км
Рассеянная облачность на высоте 25000 фута

TAF: KAGC 212325Z 2200/2224 VRB04KT P6SM BKN050 FM221400 12007KT P6SM BKN250

Метеонаблюдения и прогнозы для более 4000 аэропортов (сводки METAR и TAF).

Имеющиеся станции представлены на карте желтыми и красными точками.

Чтобы увидеть название станции, наведите на нее мышь.

Затем щелкните, чтобы увидеть метеонаблюдения и метеопрогнозы.

Управление картой: чтобы увеличить масштаб, щелкните зеленые кнопки с черным крестиком; чтобы уменьшить масштаб, щелкните зеленую кнопку с тире; для просмотра соседних карт щелкайте зеленые стрелки.


METAR-TAF: